Flight Track Log - Related Links

Times and Time Zones

All times are in EDT time to prevent confusion due to time zone crossing. See the N864AS flight status page for this flight to view local times or setup timezone preferences in your user account.

Time Position Orientation Groundspeed Altitude Reporting Facility
EDT Latitude Longitude Course Direction KTS MPH feet Rate Location/Type
Tue 11:33:15 AM 44.8958 -93.2550 274° West 163 188 2,400  Level FAA TRACON SMA TRACON (SMA)
Tue 11:33:55 AM 44.8983 -93.3072 253° West 207 238 4,300 2,658 Climbing FAA TRACON SMA TRACON (SMA)
Tue 11:34:34 AM 44.8856 -93.3675 201° Southwest 245 282 5,900 2,775 Climbing FAA TRACON SMA TRACON (SMA)
Tue 11:35:15 AM 44.8433 -93.3906 186° South 276 318 8,000 3,185 Climbing FAA TRACON SMA TRACON (SMA)
Tue 11:35:55 AM 44.7886 -93.3989 161° South 288 331 10,200 3,038 Climbing FAA TRACON SMA TRACON (SMA)
Tue 11:36:34 AM 44.7333 -93.3725 145° Southeast 312 359 12,000 2,734 Climbing FAA TRACON SMA TRACON (SMA)
Tue 11:37:14 AM 44.6892 -93.3283 146° Southeast 315 362 13,800 2,700 Climbing FAA TRACON SMA TRACON (SMA)
Tue 11:37:54 AM 44.6378 -93.2800 146° Southeast 322 371 15,600 2,741 Climbing FAA TRACON SMA TRACON (SMA)
Tue 11:38:35 AM 44.5858 -93.2308 147° Southeast 327 376 17,500 2,741 Climbing FAA TRACON SMA TRACON (SMA)
Tue 11:39:15 AM 44.5314 -93.1806 145° Southeast 338 389 19,300 2,430 Climbing FAA TRACON SMA TRACON (SMA)
Tue 11:39:54 AM 44.4825 -93.1333 145° Southeast 346 398 20,700 2,278 Climbing FAA TRACON SMA TRACON (SMA)
Tue 11:40:34 AM 44.4269 -93.0797 146° Southeast 351 404 22,300 1,704 Climbing FAA TRACON SMA TRACON (SMA)
Tue 11:41:15 AM 44.3708 -93.0269 145° Southeast 350 403 23,000 519 Climbing FAA TRACON SMA TRACON (SMA)
Tue 11:41:55 AM 44.3231 -92.9806 146° Southeast 341 392 23,000  Level FAA TRACON SMA TRACON (SMA)
Tue 11:42:35 AM 44.2700 -92.9308 152° Southeast 330 380 23,000  Level FAA TRACON SMA TRACON (SMA)
Tue 11:43:15 AM 44.2164 -92.8903 152° Southeast 314 361 23,000  Level FAA TRACON SMA TRACON (SMA)
Tue 11:43:55 AM 44.1697 -92.8564 154° Southeast 305 351 23,000  Level FAA TRACON SMA TRACON (SMA)
Tue 11:44:34 AM 44.1172 -92.8200 153° Southeast 308 354 23,000  Level FAA TRACON SMA TRACON (SMA)
Tue 11:45:14 AM 44.0633 -92.7811 156° South 315 362 23,000  Level FAA TRACON SMA TRACON (SMA)
Tue 11:46:53 AM 43.9478 -92.7097 154° Southeast 306 352 23,000  Level Minneapolis Center
Tue 11:47:53 AM 43.8642 -92.6533 159° South 306 352 23,000  Level Minneapolis Center
Tue 11:48:53 AM 43.7908 -92.6139 167° South 306 352 23,000  Level Minneapolis Center
Tue 11:49:53 AM 43.7114 -92.5892 174° South 306 352 23,000  Level Minneapolis Center
Tue 11:52:53 AM 43.4739 -92.5556 172° South 288 331 23,000  Level Minneapolis Center
Tue 11:53:53 AM 43.3906 -92.5394 173° South 294 338 23,000  Level Minneapolis Center
Tue 11:54:53 AM 43.3092 -92.5267 173° South 294 338 23,000  Level Minneapolis Center
Tue 11:55:54 AM 43.2278 -92.5136 172° South 294 338 23,000  Level Minneapolis Center
Tue 11:56:53 AM 43.1464 -92.4978 174° South 294 338 23,000  Level Minneapolis Center
Tue 11:58:44 AM 42.9939 -92.4750 156° South 290 334 23,000  Level Chicago Center
Tue 11:59:44 AM 42.9181 -92.4289 152° Southeast 290 334 23,000  Level Chicago Center
Tue 12:00:44 PM 42.8425 -92.3742 153° Southeast 302 348 23,000  Level Chicago Center
Tue 12:01:44 PM 42.7647 -92.3194 152° Southeast 313 360 23,000 -100 Level Chicago Center
Tue 12:02:44 PM 42.6889 -92.2650 154° Southeast 313 360 22,800 -1,650 Descending Chicago Center
Tue 12:03:44 PM 42.6069 -92.2103 152° Southeast 338 389 19,700 -3,000 Descending Chicago Center
Tue 12:04:44 PM 42.5086 -92.1383 154° Southeast 376 433 16,800 -2,950 Descending Chicago Center
Tue 12:05:44 PM 42.4142 -92.0750 152° Southeast 387 445 13,800 -2,850 Descending Chicago Center
Tue 12:06:44 PM 42.3219 -92.0094 153° Southeast 381 438 11,100 -1,400 Descending Chicago Center
Tue 12:07:44 PM 42.2336 -91.9497 152° Southeast 369 425 11,000 -200 Descending Chicago Center
Tue 12:08:44 PM 42.1578 -91.8961 152° Southeast 337 388 10,700 -1,000 Descending Chicago Center
Tue 12:09:44 PM 42.0839 -91.8428 129° Southeast 313 360 9,000 -1,750 Descending Chicago Center
Tue 12:10:44 PM 42.0333 -91.7597 126° Southeast 301 346 7,200 -1,800 Descending Chicago Center
Tue 12:11:44 PM 41.9872 -91.6742 127° Southeast 283 326 5,400 -1,200 Descending Chicago Center
Tue 12:12:44 PM 41.9450 -91.6000 174° South 275 316 4,800 -1,300 Descending Chicago Center
Tue 12:13:44 PM 41.8889 -91.5925 261° West 197 227 2,800 -1,550 Descending Chicago Center
Tue 12:14:44 PM 41.8836 -91.6397 261° West 135 155 1,700 -1,100 Descending Chicago Center

Login

Don't have an account? Register now (free) for customized features, flight alerts, and more!